METAR AND TAF INFORMATION
METAR FOR ENTC
ADDS - METARS form results

(0742 UTC 13 September 2022)
Data provider http://aviationweather.gov/metar/data/
 
METAR text: ENTC 130720Z 03006KT 9999 FEW049 BKN096 07/04 Q1003 NOSIG RMK WIND 2600FT 01004KT
Conditions at: ENTC (TROMSO/LANGNES , NO) observed 0720 UTC 13 September 2022
Temperature: 7.0°C (45°F)
Dewpoint: 4.0°C (39°F) [RH = 81%]
Pressure (altimeter): 29.62 inches Hg (1003.0 mb)
Winds: from the NNE (30 degrees) at 7 MPH (6 knots; 3.1 m/s)
Visibility: 6 or more miles (10+ km)
Ceiling: 9600 feet AGL
Clouds: few clouds at 4900 feet AGL
broken clouds at 9600 feet AGL
Weather: no significant weather observed at this time

METAR text: ENTC 130650Z 02004KT 340V050 9999 SCT051 BKN098 06/04 Q1003 NOSIG RMK WIND 2600FT 01003KT
Conditions at: ENTC (TROMSO/LANGNES , NO) observed 0650 UTC 13 September 2022
Temperature: 6.0°C (43°F)
Dewpoint: 4.0°C (39°F) [RH = 87%]
Pressure (altimeter): 29.62 inches Hg (1003.0 mb)
Winds: from the NNE (20 degrees) at 5 MPH (4 knots; 2.1 m/s)
Visibility: 6 or more miles (10+ km)
Ceiling: 9800 feet AGL
Clouds: scattered clouds at 5100 feet AGL
broken clouds at 9800 feet AGL
Weather: no significant weather observed at this time

Forecast for: ENTC (TROMSO/LANGNES , NO)
Text: TAF ENTC 1306/1406 03009KT 9999 SCT040
Forecast period: 0600 UTC 13 September 2022 to 0600 UTC 14 September 2022
Forecast type: FROM: standard forecast or significant change
Winds: from the NNE (30 degrees) at 10 MPH (9 knots; 4.6 m/s)
Visibility: 6 or more miles (10+ km)
Ceiling: at least 12,000 feet AGL
Clouds: scattered clouds at 4000 feet AGL
Weather: no significant weather forecast for this period

 AIRPORT MAP

 RUNWAY INFORMATION
Runway 01 Runway length 7848 ft Runway width 148 ft
Runway elevation 25 ft Runway displaced threshold 0 ft Runway heading 13
Runway 19 Runway length 7848 ft Runway width 148 ft
Runway elevation 13 ft Runway displaced threshold 1286 ft Runway heading 193

 AIRPORT FREQUENCIES
Type APP Name APP Frequency 123.75 MHZ
Type ATIS Name ATIS Frequency 126.125 MHZ
Type TWR Name TWR Frequency 118.3 MHZ

 AIRPORT NEAR NAVIGATION AIDS
Type NDB Name Kobbe Frequency 283 KHZ
Type NDB Name Kvalsund Frequency 362 KHZ
Type NDB Name Lanes Frequency 268 KHZ
Type VOR-DME Name Tromso Frequency 113800 KHZ



Powered by Virtual Airlines Manager [v2.6.2]